Terminal Aerodrome Forecast
Issued by NWS

Home | Current Version | Previous Version | Text Only | Print | Product List | Glossary Off
Versions: 1 2 3 4 5 6 7 8 9 10 11 12 13 14 15 16 17 18

578
FTUS43 KBIS 071731
TAFJMS
TAF
KJMS 071731Z 0718/0818 32032G44KT 6SM BLSN OVC015
      TEMPO 0718/0721 2SM -SN BLSN
     FM072200 33034G48KT P6SM OVC025
     FM081200 34025G35KT P6SM BKN025=

USA.gov is the U.S. government's official web portal to all federal, state and local government web resources and services.